sensor_id;sensor_type;location;lat;lon;timestamp;pressure;altitude;pressure_sealevel;temperature;humidity
16580;BME280;8402;51.466;6.806;2023-04-25T00:00:42;100708.16;;;9.04;80.55
16580;BME280;8402;51.466;6.806;2023-04-25T00:03:12;100714.47;;;9.00;81.75
16580;BME280;8402;51.466;6.806;2023-04-25T00:05:45;100711.78;;;9.00;81.86
16580;BME280;8402;51.466;6.806;2023-04-25T00:08:16;100713.09;;;9.02;80.96
16580;BME280;8402;51.466;6.806;2023-04-25T00:10:45;100712.78;;;9.04;80.91
16580;BME280;8402;51.466;6.806;2023-04-25T00:13:15;100716.28;;;9.04;81.10
16580;BME280;8402;51.466;6.806;2023-04-25T00:15:46;100717.38;;;9.03;81.98
16580;BME280;8402;51.466;6.806;2023-04-25T00:18:16;100719.47;;;9.06;81.40
16580;BME280;8402;51.466;6.806;2023-04-25T00:20:48;100721.38;;;9.06;81.46
16580;BME280;8402;51.466;6.806;2023-04-25T00:23:19;100720.59;;;9.05;81.62
16580;BME280;8402;51.466;6.806;2023-04-25T00:25:49;100719.47;;;9.06;81.42
16580;BME280;8402;51.466;6.806;2023-04-25T00:28:19;100713.09;;;9.02;81.57
16580;BME280;8402;51.466;6.806;2023-04-25T00:30:49;100719.31;;;9.03;81.83
16580;BME280;8402;51.466;6.806;2023-04-25T00:33:19;100723.28;;;9.05;81.68
16580;BME280;8402;51.466;6.806;2023-04-25T00:35:52;100725.41;;;9.08;82.02
16580;BME280;8402;51.466;6.806;2023-04-25T00:38:22;100721.91;;;9.08;81.92
16580;BME280;8402;51.466;6.806;2023-04-25T00:40:52;100723.81;;;9.07;81.89
16580;BME280;8402;51.466;6.806;2023-04-25T00:43:22;100721.59;;;9.09;82.07
16580;BME280;8402;51.466;6.806;2023-04-25T00:45:53;100724.28;;;9.09;82.66
16580;BME280;8402;51.466;6.806;2023-04-25T00:48:24;100717.56;;;9.07;81.92
16580;BME280;8402;51.466;6.806;2023-04-25T00:50:58;100720.72;;;9.00;82.53
16580;BME280;8402;51.466;6.806;2023-04-25T00:53:28;100720.72;;;9.00;81.95
16580;BME280;8402;51.466;6.806;2023-04-25T00:55:59;100720.72;;;9.00;82.50
16580;BME280;8402;51.466;6.806;2023-04-25T00:58:29;100720.72;;;9.00;82.47
16580;BME280;8402;51.466;6.806;2023-04-25T01:00:59;100720.72;;;9.00;82.65
16580;BME280;8402;51.466;6.806;2023-04-25T01:03:31;100724.22;;;9.01;82.62
16580;BME280;8402;51.466;6.806;2023-04-25T01:06:06;100717.88;;;9.05;82.52
16580;BME280;8402;51.466;6.806;2023-04-25T01:08:37;100727.59;;;9.06;82.44
16580;BME280;8402;51.466;6.806;2023-04-25T01:11:08;100731.31;;;9.10;82.39
16580;BME280;8402;51.466;6.806;2023-04-25T01:13:38;100727.31;;;9.08;83.50
16580;BME280;8402;51.466;6.806;2023-04-25T01:16:08;100733.53;;;9.08;83.37
16580;BME280;8402;51.466;6.806;2023-04-25T01:18:39;100727.41;;;9.03;83.65
16580;BME280;8402;51.466;6.806;2023-04-25T01:21:13;100733.72;;;8.98;83.65
16580;BME280;8402;51.466;6.806;2023-04-25T01:23:43;100732.13;;;8.97;83.34
16580;BME280;8402;51.466;6.806;2023-04-25T01:26:13;100730.44;;;9.01;83.13
16580;BME280;8402;51.466;6.806;2023-04-25T01:28:43;100736.94;;;9.00;83.77
16580;BME280;8402;51.466;6.806;2023-04-25T01:31:14;100738.56;;;9.01;83.66
16580;BME280;8402;51.466;6.806;2023-04-25T01:33:46;100733.13;;;9.01;83.48
16580;BME280;8402;51.466;6.806;2023-04-25T01:36:20;100742.38;;;9.00;83.86
16580;BME280;8402;51.466;6.806;2023-04-25T01:38:51;100741.25;;;9.01;83.75
16580;BME280;8402;51.466;6.806;2023-04-25T01:41:20;100741.75;;;9.03;83.88
16580;BME280;8402;51.466;6.806;2023-04-25T01:43:50;100743.97;;;9.01;84.67
16580;BME280;8402;51.466;6.806;2023-04-25T01:46:20;100739.44;;;8.97;84.60
16580;BME280;8402;51.466;6.806;2023-04-25T01:48:50;100742.38;;;9.00;84.60
16580;BME280;8402;51.466;6.806;2023-04-25T01:51:23;100754.47;;;9.03;84.14
16580;BME280;8402;51.466;6.806;2023-04-25T01:53:53;100752.75;;;9.07;84.01
16580;BME280;8402;51.466;6.806;2023-04-25T01:56:30;100756.38;;;9.02;85.59
16580;BME280;8402;51.466;6.806;2023-04-25T01:59:00;100761.19;;;9.05;84.71
16580;BME280;8402;51.466;6.806;2023-04-25T02:01:30;100757.19;;;9.03;84.74
16580;BME280;8402;51.466;6.806;2023-04-25T02:04:00;100759.59;;;9.04;84.52
16580;BME280;8402;51.466;6.806;2023-04-25T02:06:33;100761.19;;;9.05;84.74
16580;BME280;8402;51.466;6.806;2023-04-25T02:09:03;100763.59;;;9.07;85.17
16580;BME280;8402;51.466;6.806;2023-04-25T02:11:33;100762.19;;;9.09;84.65
16580;BME280;8402;51.466;6.806;2023-04-25T02:14:03;100764.41;;;9.07;84.86
16580;BME280;8402;51.466;6.806;2023-04-25T02:16:33;100764.91;;;9.09;84.79
16580;BME280;8402;51.466;6.806;2023-04-25T02:19:03;100769.22;;;9.10;84.69
16580;BME280;8402;51.466;6.806;2023-04-25T02:21:35;100766.00;;;9.08;84.66
16580;BME280;8402;51.466;6.806;2023-04-25T02:24:07;100771.13;;;9.10;84.98
16580;BME280;8402;51.466;6.806;2023-04-25T02:26:37;100767.50;;;9.15;84.88
16580;BME280;8402;51.466;6.806;2023-04-25T02:29:07;100771.00;;;9.15;85.03
16580;BME280;8402;51.466;6.806;2023-04-25T02:31:37;100767.78;;;9.13;85.11
16580;BME280;8402;51.466;6.806;2023-04-25T02:34:07;100772.72;;;9.11;86.08
16580;BME280;8402;51.466;6.806;2023-04-25T02:36:39;100779.41;;;9.14;85.71
16580;BME280;8402;51.466;6.806;2023-04-25T02:39:09;100775.41;;;9.11;85.54
16580;BME280;8402;51.466;6.806;2023-04-25T02:41:39;100779.41;;;9.14;85.53
16580;BME280;8402;51.466;6.806;2023-04-25T02:44:09;100770.81;;;9.12;86.16
16580;BME280;8402;51.466;6.806;2023-04-25T02:46:39;100768.91;;;9.12;85.81
16580;BME280;8402;51.466;6.806;2023-04-25T02:49:10;100783.34;;;9.07;86.21
16580;BME280;8402;51.466;6.806;2023-04-25T02:51:42;100779.03;;;9.06;86.55
16580;BME280;8402;51.466;6.806;2023-04-25T02:54:12;100783.06;;;9.09;86.23
16580;BME280;8402;51.466;6.806;2023-04-25T02:56:42;100779.53;;;9.08;86.25
16580;BME280;8402;51.466;6.806;2023-04-25T02:59:12;100786.47;;;9.15;85.69
16580;BME280;8402;51.466;6.806;2023-04-25T03:01:42;100786.63;;;9.18;86.12
16580;BME280;8402;51.466;6.806;2023-04-25T03:04:12;100787.13;;;9.20;86.10
16580;BME280;8402;51.466;6.806;2023-04-25T03:06:45;100782.34;;;9.17;85.75
16580;BME280;8402;51.466;6.806;2023-04-25T03:09:14;100785.34;;;9.16;85.90
16580;BME280;8402;51.466;6.806;2023-04-25T03:11:45;100786.94;;;9.17;85.87
16580;BME280;8402;51.466;6.806;2023-04-25T03:14:15;100777.72;;;9.18;85.76
16580;BME280;8402;51.466;6.806;2023-04-25T03:16:45;100779.63;;;9.17;85.99
16580;BME280;8402;51.466;6.806;2023-04-25T03:19:15;100784.72;;;9.19;86.19
16580;BME280;8402;51.466;6.806;2023-04-25T03:21:48;100782.03;;;9.19;85.78
16580;BME280;8402;51.466;6.806;2023-04-25T03:24:18;100779.41;;;9.14;86.15
16580;BME280;8402;51.466;6.806;2023-04-25T03:26:48;100782.63;;;9.16;85.50
16580;BME280;8402;51.466;6.806;2023-04-25T03:29:18;100791.88;;;9.15;85.87
16580;BME280;8402;51.466;6.806;2023-04-25T03:31:51;100796.19;;;9.16;86.01
16580;BME280;8402;51.466;6.806;2023-04-25T03:34:21;100786.63;;;9.18;85.96
16580;BME280;8402;51.466;6.806;2023-04-25T03:36:53;100792.25;;;9.22;85.85
16580;BME280;8402;51.466;6.806;2023-04-25T03:39:23;100790.63;;;9.21;85.82
16580;BME280;8402;51.466;6.806;2023-04-25T03:41:54;100790.63;;;9.21;85.77
16580;BME280;8402;51.466;6.806;2023-04-25T03:44:24;100789.84;;;9.20;85.77
16580;BME280;8402;51.466;6.806;2023-04-25T03:46:54;100788.84;;;9.16;85.92
16580;BME280;8402;51.466;6.806;2023-04-25T03:49:24;100787.03;;;9.12;86.38
16580;BME280;8402;51.466;6.806;2023-04-25T03:51:57;100788.66;;;9.13;86.28
16580;BME280;8402;51.466;6.806;2023-04-25T03:54:27;100797.28;;;9.15;85.97
16580;BME280;8402;51.466;6.806;2023-04-25T03:56:57;100801.59;;;9.16;85.96
16580;BME280;8402;51.466;6.806;2023-04-25T03:59:27;100797.28;;;9.15;86.21
16580;BME280;8402;51.466;6.806;2023-04-25T04:01:57;100807.50;;;9.18;86.15
16580;BME280;8402;51.466;6.806;2023-04-25T04:04:29;100807.00;;;9.16;85.65
16580;BME280;8402;51.466;6.806;2023-04-25T04:07:02;100802.69;;;9.15;86.10
16580;BME280;8402;51.466;6.806;2023-04-25T04:09:32;100808.28;;;9.18;85.95
16580;BME280;8402;51.466;6.806;2023-04-25T04:12:05;100809.09;;;9.19;85.72
16580;BME280;8402;51.466;6.806;2023-04-25T04:14:36;100815.31;;;9.19;85.62
16580;BME280;8402;51.466;6.806;2023-04-25T04:17:05;100817.72;;;9.21;85.21
16580;BME280;8402;51.466;6.806;2023-04-25T04:19:35;100819.94;;;9.19;85.73
16580;BME280;8402;51.466;6.806;2023-04-25T04:22:08;100817.03;;;9.15;85.31
16580;BME280;8402;51.466;6.806;2023-04-25T04:24:38;100819.44;;;9.17;85.43
16580;BME280;8402;51.466;6.806;2023-04-25T04:27:10;100825.34;;;9.19;84.96
16580;BME280;8402;51.466;6.806;2023-04-25T04:29:40;100828.03;;;9.19;85.21
16580;BME280;8402;51.466;6.806;2023-04-25T04:32:10;100832.47;;;9.15;84.81
16580;BME280;8402;51.466;6.806;2023-04-25T04:34:40;100832.47;;;9.15;85.15
16580;BME280;8402;51.466;6.806;2023-04-25T04:37:17;100835.97;;;9.15;85.19
16580;BME280;8402;51.466;6.806;2023-04-25T04:39:47;100835.19;;;9.15;84.92
16580;BME280;8402;51.466;6.806;2023-04-25T04:42:18;100836.88;;;9.10;84.27
16580;BME280;8402;51.466;6.806;2023-04-25T04:44:48;100826.94;;;9.06;84.60
16580;BME280;8402;51.466;6.806;2023-04-25T04:47:18;100839.50;;;9.02;84.45
16580;BME280;8402;51.466;6.806;2023-04-25T04:49:52;100842.78;;;8.99;84.46
16580;BME280;8402;51.466;6.806;2023-04-25T04:52:25;100847.41;;;8.98;84.27
16580;BME280;8402;51.466;6.806;2023-04-25T04:54:58;100853.19;;;8.92;84.03
16580;BME280;8402;51.466;6.806;2023-04-25T04:57:28;100861.63;;;8.90;84.52
16580;BME280;8402;51.466;6.806;2023-04-25T04:59:59;100856.03;;;8.87;84.13
16580;BME280;8402;51.466;6.806;2023-04-25T05:02:30;100861.22;;;8.83;84.45
16580;BME280;8402;51.466;6.806;2023-04-25T05:05:01;100870.44;;;8.82;84.36
16580;BME280;8402;51.466;6.806;2023-04-25T05:07:33;100868.84;;;8.81;84.87
16580;BME280;8402;51.466;6.806;2023-04-25T05:10:06;100869.66;;;8.81;84.52
16580;BME280;8402;51.466;6.806;2023-04-25T05:12:36;100868.84;;;8.81;84.47
16580;BME280;8402;51.466;6.806;2023-04-25T05:15:07;100873.44;;;8.80;84.37
16580;BME280;8402;51.466;6.806;2023-04-25T05:17:37;100873.75;;;8.79;84.60
16580;BME280;8402;51.466;6.806;2023-04-25T05:20:09;100882.16;;;8.77;84.10
16580;BME280;8402;51.466;6.806;2023-04-25T05:22:43;100882.16;;;8.77;84.60
16580;BME280;8402;51.466;6.806;2023-04-25T05:25:13;100885.06;;;8.81;84.57
16580;BME280;8402;51.466;6.806;2023-04-25T05:27:43;100888.88;;;8.80;84.42
16580;BME280;8402;51.466;6.806;2023-04-25T05:30:13;100886.69;;;8.82;84.20
16580;BME280;8402;51.466;6.806;2023-04-25T05:32:43;100895.28;;;8.84;84.38
16580;BME280;8402;51.466;6.806;2023-04-25T05:35:13;100898.53;;;8.86;83.99
16580;BME280;8402;51.466;6.806;2023-04-25T05:37:46;100898.31;;;8.82;84.02
16580;BME280;8402;51.466;6.806;2023-04-25T05:40:16;100899.91;;;8.83;84.02
16580;BME280;8402;51.466;6.806;2023-04-25T05:42:48;100905.81;;;8.86;84.46
16580;BME280;8402;51.466;6.806;2023-04-25T05:45:17;100903.94;;;8.86;84.17
16580;BME280;8402;51.466;6.806;2023-04-25T05:47:47;100912.53;;;8.88;84.31
16580;BME280;8402;51.466;6.806;2023-04-25T05:50:17;100908.94;;;8.93;84.31
16580;BME280;8402;51.466;6.806;2023-04-25T05:52:50;100912.16;;;8.95;84.14
16580;BME280;8402;51.466;6.806;2023-04-25T05:55:20;100918.38;;;8.95;84.06
16580;BME280;8402;51.466;6.806;2023-04-25T05:57:50;100919.38;;;8.99;84.36
16580;BME280;8402;51.466;6.806;2023-04-25T06:00:20;100927.41;;;9.04;84.57
16580;BME280;8402;51.466;6.806;2023-04-25T06:02:50;100935.22;;;9.06;84.12
16580;BME280;8402;51.466;6.806;2023-04-25T06:05:20;100940.84;;;9.09;84.07
16580;BME280;8402;51.466;6.806;2023-04-25T06:07:53;100940.75;;;9.15;84.17
16580;BME280;8402;51.466;6.806;2023-04-25T06:10:23;100946.66;;;9.17;84.03
16580;BME280;8402;51.466;6.806;2023-04-25T06:12:53;100948.06;;;9.14;82.92
16580;BME280;8402;51.466;6.806;2023-04-25T06:15:23;100947.88;;;9.10;82.88
16580;BME280;8402;51.466;6.806;2023-04-25T06:17:55;100947.38;;;9.08;82.63
16580;BME280;8402;51.466;6.806;2023-04-25T06:20:25;100944.81;;;8.98;82.00
16580;BME280;8402;51.466;6.806;2023-04-25T06:22:58;100954.28;;;9.01;82.32
16580;BME280;8402;51.466;6.806;2023-04-25T06:25:30;100952.56;;;9.05;81.98
16580;BME280;8402;51.466;6.806;2023-04-25T06:28:00;100946.59;;;9.22;82.11
16580;BME280;8402;51.466;6.806;2023-04-25T06:30:30;100952.50;;;9.24;81.74
16580;BME280;8402;51.466;6.806;2023-04-25T06:33:00;100960.94;;;9.36;81.13
16580;BME280;8402;51.466;6.806;2023-04-25T06:35:30;100953.50;;;9.55;80.98
16580;BME280;8402;51.466;6.806;2023-04-25T06:38:03;100955.09;;;9.56;80.46
16580;BME280;8402;51.466;6.806;2023-04-25T06:40:33;100949.09;;;9.59;81.13
16580;BME280;8402;51.466;6.806;2023-04-25T06:43:03;100958.50;;;9.62;80.36
16580;BME280;8402;51.466;6.806;2023-04-25T06:45:35;100971.16;;;9.67;81.19
16580;BME280;8402;51.466;6.806;2023-04-25T06:48:05;100957.13;;;9.64;80.98
16580;BME280;8402;51.466;6.806;2023-04-25T06:50:35;100959.72;;;9.56;81.56
16580;BME280;8402;51.466;6.806;2023-04-25T06:53:08;100953.09;;;9.48;81.22
16580;BME280;8402;51.466;6.806;2023-04-25T06:55:38;100961.84;;;9.45;80.93
16580;BME280;8402;51.466;6.806;2023-04-25T06:58:08;100962.72;;;9.54;81.76
16580;BME280;8402;51.466;6.806;2023-04-25T07:00:38;100967.97;;;9.64;82.27
16580;BME280;8402;51.466;6.806;2023-04-25T07:03:08;100962.00;;;9.76;81.58
16580;BME280;8402;51.466;6.806;2023-04-25T07:05:38;100965.13;;;9.83;81.25
16580;BME280;8402;51.466;6.806;2023-04-25T07:08:11;100970.75;;;9.87;81.39
16580;BME280;8402;51.466;6.806;2023-04-25T07:10:41;100980.97;;;9.90;81.21
16580;BME280;8402;51.466;6.806;2023-04-25T07:13:15;100980.97;;;9.90;80.99
16580;BME280;8402;51.466;6.806;2023-04-25T07:15:46;100988.22;;;9.95;81.24
16580;BME280;8402;51.466;6.806;2023-04-25T07:18:16;100986.59;;;10.07;80.65
16580;BME280;8402;51.466;6.806;2023-04-25T07:20:46;100982.47;;;10.46;80.52
16580;BME280;8402;51.466;6.806;2023-04-25T07:23:18;100973.16;;;10.83;79.70
16580;BME280;8402;51.466;6.806;2023-04-25T07:25:48;100986.91;;;11.09;78.83
16580;BME280;8402;51.466;6.806;2023-04-25T07:28:18;100988.88;;;11.17;78.30
16580;BME280;8402;51.466;6.806;2023-04-25T07:30:48;100982.94;;;11.15;76.88
16580;BME280;8402;51.466;6.806;2023-04-25T07:33:18;100988.53;;;11.19;77.09
16580;BME280;8402;51.466;6.806;2023-04-25T07:35:50;100989.34;;;11.19;75.40
16580;BME280;8402;51.466;6.806;2023-04-25T07:38:22;100992.06;;;11.19;75.64
16580;BME280;8402;51.466;6.806;2023-04-25T07:40:52;100991.28;;;11.27;75.67
16580;BME280;8402;51.466;6.806;2023-04-25T07:43:22;100996.72;;;11.27;75.16
16580;BME280;8402;51.466;6.806;2023-04-25T07:45:54;101011.19;;;11.14;74.23
16580;BME280;8402;51.466;6.806;2023-04-25T07:48:24;101002.56;;;11.12;74.72
16580;BME280;8402;51.466;6.806;2023-04-25T07:50:54;101010.41;;;11.14;74.43
16580;BME280;8402;51.466;6.806;2023-04-25T07:53:26;101018.38;;;11.10;72.75
16580;BME280;8402;51.466;6.806;2023-04-25T07:56:00;101011.22;;;11.45;74.47
16580;BME280;8402;51.466;6.806;2023-04-25T07:58:34;101016.91;;;11.66;73.18
16580;BME280;8402;51.466;6.806;2023-04-25T08:01:05;101012.28;;;11.75;73.35
16580;BME280;8402;51.466;6.806;2023-04-25T08:03:35;101020.69;;;11.88;71.66
16580;BME280;8402;51.466;6.806;2023-04-25T08:06:06;101012.69;;;12.00;72.22
16580;BME280;8402;51.466;6.806;2023-04-25T08:08:39;101030.00;;;12.21;70.96
16580;BME280;8402;51.466;6.806;2023-04-25T08:11:09;101029.06;;;12.34;71.65
16580;BME280;8402;51.466;6.806;2023-04-25T08:13:39;101033.09;;;12.37;71.25
16580;BME280;8402;51.466;6.806;2023-04-25T08:16:09;101029.25;;;12.38;71.20
16580;BME280;8402;51.466;6.806;2023-04-25T08:18:40;101046.38;;;12.30;70.15
16580;BME280;8402;51.466;6.806;2023-04-25T08:21:10;101043.31;;;12.23;68.87
16580;BME280;8402;51.466;6.806;2023-04-25T08:23:43;101045.53;;;12.21;67.62
16580;BME280;8402;51.466;6.806;2023-04-25T08:26:13;101051.81;;;12.38;69.67
16580;BME280;8402;51.466;6.806;2023-04-25T08:28:46;101058.22;;;12.43;68.92
16580;BME280;8402;51.466;6.806;2023-04-25T08:31:16;101049.25;;;12.33;67.99
16580;BME280;8402;51.466;6.806;2023-04-25T08:33:46;101055.94;;;12.27;67.78
16580;BME280;8402;51.466;6.806;2023-04-25T08:36:18;101056.47;;;12.29;68.43
16580;BME280;8402;51.466;6.806;2023-04-25T08:39:07;101068.63;;;12.40;66.94
16580;BME280;8402;51.466;6.806;2023-04-25T08:41:37;101073.91;;;12.46;67.57
16580;BME280;8402;51.466;6.806;2023-04-25T08:44:09;101080.94;;;12.38;63.20
16580;BME280;8402;51.466;6.806;2023-04-25T08:46:40;101079.31;;;12.28;62.70
16580;BME280;8402;51.466;6.806;2023-04-25T08:49:13;101083.34;;;12.31;63.83
16580;BME280;8402;51.466;6.806;2023-04-25T08:51:44;101084.63;;;12.33;65.33
16580;BME280;8402;51.466;6.806;2023-04-25T08:54:20;101094.34;;;12.17;60.07
16580;BME280;8402;51.466;6.806;2023-04-25T08:57:02;101087.00;;;12.26;64.18
16580;BME280;8402;51.466;6.806;2023-04-25T08:59:33;101098.38;;;12.28;63.86
16580;BME280;8402;51.466;6.806;2023-04-25T09:02:04;101095.34;;;12.38;64.88
16580;BME280;8402;51.466;6.806;2023-04-25T09:04:36;101108.03;;;12.43;65.20
16580;BME280;8402;51.466;6.806;2023-04-25T09:07:06;101106.56;;;12.46;64.82
16580;BME280;8402;51.466;6.806;2023-04-25T09:09:39;101116.53;;;12.59;62.88
16580;BME280;8402;51.466;6.806;2023-04-25T09:12:09;101117.84;;;12.87;64.05
16580;BME280;8402;51.466;6.806;2023-04-25T09:14:39;101115.41;;;13.12;64.09
16580;BME280;8402;51.466;6.806;2023-04-25T09:17:10;101118.97;;;13.21;62.50
16580;BME280;8402;51.466;6.806;2023-04-25T09:19:40;101116.06;;;13.35;62.30
16580;BME280;8402;51.466;6.806;2023-04-25T09:22:12;101126.16;;;13.34;60.79
16580;BME280;8402;51.466;6.806;2023-04-25T09:24:45;101125.38;;;13.16;58.05
16580;BME280;8402;51.466;6.806;2023-04-25T09:27:19;101125.53;;;13.37;60.45
16580;BME280;8402;51.466;6.806;2023-04-25T09:29:56;101124.91;;;13.23;59.04
16580;BME280;8402;51.466;6.806;2023-04-25T09:32:27;101142.50;;;13.43;60.69
16580;BME280;8402;51.466;6.806;2023-04-25T09:34:58;101130.31;;;13.40;58.58
16580;BME280;8402;51.466;6.806;2023-04-25T09:37:28;101129.50;;;13.48;59.18
16580;BME280;8402;51.466;6.806;2023-04-25T09:40:05;101135.63;;;13.45;56.48
16580;BME280;8402;51.466;6.806;2023-04-25T09:42:41;101137.84;;;13.52;58.10
16580;BME280;8402;51.466;6.806;2023-04-25T09:45:12;101145.84;;;13.66;58.10
16580;BME280;8402;51.466;6.806;2023-04-25T09:47:43;101153.34;;;13.77;59.03
16580;BME280;8402;51.466;6.806;2023-04-25T09:50:17;101142.75;;;13.76;58.85
16580;BME280;8402;51.466;6.806;2023-04-25T09:53:02;101153.00;;;13.88;55.81
16580;BME280;8402;51.466;6.806;2023-04-25T09:55:36;101154.03;;;14.13;56.75
16580;BME280;8402;51.466;6.806;2023-04-25T09:58:11;101150.72;;;14.37;57.38
16580;BME280;8402;51.466;6.806;2023-04-25T10:00:42;101148.88;;;14.49;56.11
16580;BME280;8402;51.466;6.806;2023-04-25T10:03:14;101150.38;;;14.68;54.06
16580;BME280;8402;51.466;6.806;2023-04-25T10:05:47;101157.72;;;14.76;55.71
16580;BME280;8402;51.466;6.806;2023-04-25T10:08:19;101140.63;;;14.88;56.47
16580;BME280;8402;51.466;6.806;2023-04-25T10:10:52;101151.00;;;15.15;55.68
16580;BME280;8402;51.466;6.806;2023-04-25T10:13:23;101143.94;;;15.47;55.50
16580;BME280;8402;51.466;6.806;2023-04-25T10:15:53;101151.63;;;15.33;52.77
16580;BME280;8402;51.466;6.806;2023-04-25T10:18:25;101143.97;;;15.26;51.84
16580;BME280;8402;51.466;6.806;2023-04-25T10:20:56;101153.31;;;15.25;50.62
16580;BME280;8402;51.466;6.806;2023-04-25T10:23:29;101158.00;;;15.25;51.63
16580;BME280;8402;51.466;6.806;2023-04-25T10:26:05;101161.59;;;15.17;50.61
16580;BME280;8402;51.466;6.806;2023-04-25T10:28:55;101153.22;;;15.01;48.02
16580;BME280;8402;51.466;6.806;2023-04-25T10:31:29;101155.31;;;15.37;52.41
16580;BME280;8402;51.466;6.806;2023-04-25T10:34:00;101143.94;;;15.47;53.34
16580;BME280;8402;51.466;6.806;2023-04-25T10:36:32;101146.69;;;15.47;51.52
16580;BME280;8402;51.466;6.806;2023-04-25T10:39:08;101161.00;;;15.11;49.88
16580;BME280;8402;51.466;6.806;2023-04-25T10:41:58;101174.09;;;14.76;47.81
16580;BME280;8402;51.466;6.806;2023-04-25T10:44:29;101180.22;;;14.43;50.69
16580;BME280;8402;51.466;6.806;2023-04-25T10:47:01;101177.66;;;14.09;52.88
16580;BME280;8402;51.466;6.806;2023-04-25T10:49:33;101193.97;;;13.53;53.29
16580;BME280;8402;51.466;6.806;2023-04-25T10:52:18;101201.94;;;12.89;54.20
16580;BME280;8402;51.466;6.806;2023-04-25T10:54:56;101194.44;;;12.94;56.65
16580;BME280;8402;51.466;6.806;2023-04-25T10:57:37;101198.09;;;12.81;57.93
16580;BME280;8402;51.466;6.806;2023-04-25T11:00:11;101188.81;;;12.91;59.56
16580;BME280;8402;51.466;6.806;2023-04-25T11:02:43;101192.50;;;12.86;59.31
16580;BME280;8402;51.466;6.806;2023-04-25T11:05:31;101198.88;;;12.82;59.44
16580;BME280;8402;51.466;6.806;2023-04-25T11:08:13;101195.03;;;12.91;59.88
16580;BME280;8402;51.466;6.806;2023-04-25T11:10:47;101195.22;;;12.95;59.84
16580;BME280;8402;51.466;6.806;2023-04-25T11:13:21;101194.00;;;12.53;56.98
16580;BME280;8402;51.466;6.806;2023-04-25T11:15:51;101207.66;;;12.70;58.64
16580;BME280;8402;51.466;6.806;2023-04-25T11:18:41;101203.19;;;12.74;58.64
16580;BME280;8402;51.466;6.806;2023-04-25T11:21:11;101208.31;;;12.76;58.27
16580;BME280;8402;51.466;6.806;2023-04-25T11:23:44;101203.53;;;12.81;57.16
16580;BME280;8402;51.466;6.806;2023-04-25T11:26:15;101207.84;;;12.74;55.94
16580;BME280;8402;51.466;6.806;2023-04-25T11:28:49;101210.25;;;12.84;57.11
16580;BME280;8402;51.466;6.806;2023-04-25T11:31:29;101202.28;;;12.87;57.18
16580;BME280;8402;51.466;6.806;2023-04-25T11:33:59;101207.38;;;12.89;57.41
16580;BME280;8402;51.466;6.806;2023-04-25T11:36:30;101202.88;;;12.84;56.30
16580;BME280;8402;51.466;6.806;2023-04-25T11:39:00;101208.19;;;12.89;57.43
16580;BME280;8402;51.466;6.806;2023-04-25T11:41:32;101217.16;;;12.81;57.04
16580;BME280;8402;51.466;6.806;2023-04-25T11:44:05;101210.38;;;12.70;57.40
16580;BME280;8402;51.466;6.806;2023-04-25T11:46:35;101218.41;;;12.66;58.28
16580;BME280;8402;51.466;6.806;2023-04-25T11:49:05;101219.97;;;12.59;58.44
16580;BME280;8402;51.466;6.806;2023-04-25T11:51:38;101221.56;;;12.60;59.36
16580;BME280;8402;51.466;6.806;2023-04-25T11:54:10;101222.53;;;12.64;60.19
16580;BME280;8402;51.466;6.806;2023-04-25T11:56:41;101211.81;;;12.59;61.08
16580;BME280;8402;51.466;6.806;2023-04-25T11:59:13;101218.72;;;12.65;60.57
16580;BME280;8402;51.466;6.806;2023-04-25T12:01:49;101212.47;;;12.64;60.51
16580;BME280;8402;51.466;6.806;2023-04-25T12:04:21;101222.25;;;12.74;60.44
16580;BME280;8402;51.466;6.806;2023-04-25T12:06:53;101222.59;;;12.81;60.49
16580;BME280;8402;51.466;6.806;2023-04-25T12:09:29;101220.22;;;12.97;60.60
16580;BME280;8402;51.466;6.806;2023-04-25T12:12:00;101215.59;;;13.15;60.38
16580;BME280;8402;51.466;6.806;2023-04-25T12:14:35;101212.56;;;13.34;59.46
16580;BME280;8402;51.466;6.806;2023-04-25T12:17:05;101205.06;;;13.39;59.05
16580;BME280;8402;51.466;6.806;2023-04-25T12:19:37;101217.06;;;13.38;59.49
16580;BME280;8402;51.466;6.806;2023-04-25T12:22:20;101211.94;;;13.45;58.70
16580;BME280;8402;51.466;6.806;2023-04-25T12:24:50;101210.00;;;13.63;57.96
16580;BME280;8402;51.466;6.806;2023-04-25T12:27:21;101211.75;;;13.76;57.15
16580;BME280;8402;51.466;6.806;2023-04-25T12:29:55;101214.28;;;13.90;56.74
16580;BME280;8402;51.466;6.806;2023-04-25T12:32:25;101205.88;;;14.13;57.37
16580;BME280;8402;51.466;6.806;2023-04-25T12:34:56;101204.00;;;14.34;56.98
16580;BME280;8402;51.466;6.806;2023-04-25T12:37:26;101208.78;;;14.54;57.82
16580;BME280;8402;51.466;6.806;2023-04-25T12:39:58;101191.28;;;14.76;56.58
16580;BME280;8402;51.466;6.806;2023-04-25T12:42:28;101197.13;;;14.96;56.04
16580;BME280;8402;51.466;6.806;2023-04-25T12:45:00;101204.13;;;15.05;55.68
16580;BME280;8402;51.466;6.806;2023-04-25T12:47:30;101200.31;;;15.19;55.73
16580;BME280;8402;51.466;6.806;2023-04-25T12:50:02;101192.00;;;15.36;55.87
16580;BME280;8402;51.466;6.806;2023-04-25T12:52:32;101201.91;;;15.20;55.22
16580;BME280;8402;51.466;6.806;2023-04-25T12:55:02;101210.63;;;14.92;54.77
16580;BME280;8402;51.466;6.806;2023-04-25T12:57:32;101232.16;;;14.64;54.58
16580;BME280;8402;51.466;6.806;2023-04-25T13:00:08;101233.41;;;14.37;55.52
16580;BME280;8402;51.466;6.806;2023-04-25T13:02:41;101237.97;;;14.16;56.83
16580;BME280;8402;51.466;6.806;2023-04-25T13:05:12;101242.16;;;14.04;57.29
16580;BME280;8402;51.466;6.806;2023-04-25T13:07:42;101251.53;;;13.86;56.46
16580;BME280;8402;51.466;6.806;2023-04-25T13:10:12;101246.09;;;13.69;56.41
16580;BME280;8402;51.466;6.806;2023-04-25T13:12:42;101245.94;;;13.31;55.57
16580;BME280;8402;51.466;6.806;2023-04-25T13:15:15;101244.81;;;13.32;57.45
16580;BME280;8402;51.466;6.806;2023-04-25T13:17:46;101241.75;;;13.42;58.06
16580;BME280;8402;51.466;6.806;2023-04-25T13:20:16;101239.03;;;13.68;57.67
16580;BME280;8402;51.466;6.806;2023-04-25T13:22:49;101237.97;;;14.07;56.48
16580;BME280;8402;51.466;6.806;2023-04-25T13:25:19;101232.81;;;14.23;55.46
16580;BME280;8402;51.466;6.806;2023-04-25T13:27:49;101233.47;;;14.20;53.08